Latest Weather Observations for Sydney Harbour

IDN60901

Issued at 5:11 pm EST Tuesday 26 May 2020 (issued every 10 minutes, with the page automatically refreshed every 10 minutes)

About weather observations | Map of Sydney area stations | Latest observations for Sydney area | Other Formats
Station Details ID: 066196 Name: WEDDING CAKE WEST Lat: -33.84 Lon: 151.26 Height: 6.0 m
Data from the previous 72 hours. | See also: Recent months at Sydney Harbour
Date/Time
EST
Temp
°C
App
Temp
°C
Dew
Point
°C
Rel
Hum
%
Delta-T
°C
Wind Press
QNH
hPa
Press
MSL
hPa
Rain since
9am
mm
Dir  Spd
km/h
Gust
km/h
Spd
kts
Gust
kts
26/05:00pm 18.5 - - - - SSE 24 30 13 16 - - -
26/04:30pm 18.7 - - - - SSE 24 32 13 17 - - -
26/04:00pm 18.9 - - - - SSE 26 33 14 18 - - -
26/03:30pm 18.5 - - - - SSW 22 28 12 15 - - -
26/03:00pm 18.7 - - - - S 28 35 15 19 - - -
26/02:30pm 18.9 - - - - S 28 39 15 21 - - -
26/02:00pm 19.4 - - - - SSE 30 39 16 21 - - -
26/01:30pm 19.6 - - - - SSE 30 39 16 21 - - -
26/01:00pm 19.6 - - - - SSE 28 35 15 19 - - -
26/12:30pm 19.3 - - - - SSE 32 39 17 21 - - -
26/12:00pm 19.6 - - - - SSE 30 39 16 21 - - -
26/11:30am 20.0 - - - - SE 28 41 15 22 - - -
26/11:00am 19.8 - - - - SSE 28 39 15 21 - - -
26/10:30am 19.8 - - - - SSE 24 35 13 19 - - -
26/10:00am 18.7 - - - - SE 22 32 12 17 - - -
26/09:30am 17.5 - - - - SSE 19 24 10 13 - - -
26/09:00am 16.8 - - - - SW 28 39 15 21 - - -
26/08:30am 16.8 - - - - SW 32 35 17 19 - - -
26/08:00am 16.8 - - - - SSW 30 41 16 22 - - -
26/07:30am 16.5 - - - - SW 35 41 19 22 - - -
26/07:00am 16.2 - - - - SSW 35 41 19 22 - - -
26/06:30am 16.0 - - - - SSW 35 43 19 23 - - -
26/06:00am 16.2 - - - - SSW 33 44 18 24 - - -
26/05:30am 15.9 - - - - SW 39 50 21 27 - - -
26/05:00am 16.1 - - - - SW 39 46 21 25 - - -
26/04:30am 16.3 - - - - SW 39 48 21 26 - - -
26/04:00am 16.6 - - - - SW 39 46 21 25 - - -
26/03:30am 16.3 - - - - SW 41 50 22 27 - - -
26/03:00am 16.0 - - - - SW 39 46 21 25 - - -
26/02:30am 16.2 - - - - SW 39 50 21 27 - - -
26/02:00am 16.3 - - - - SW 43 52 23 28 - - -
26/01:30am 16.5 - - - - SSW 39 50 21 27 - - -
26/01:00am 16.6 - - - - SW 35 43 19 23 - - -
26/12:30am 16.4 - - - - SW 39 50 21 27 - - -
26/12:00am 16.1 - - - - SW 44 57 24 31 - - -
 
Date/Time
EST
Temp
°C
App
Temp
°C
Dew
Point
°C
Rel
Hum
%
Delta-T
°C
Wind Press
QNH
hPa
Press
MSL
hPa
Rain since
9am
mm
Dir  Spd
km/h
Gust
km/h
Spd
kts
Gust
kts
25/11:30pm 16.2 - - - - SSW 44 57 24 31 - - -
25/11:00pm 16.4 - - - - SW 46 59 25 32 - - -
25/10:30pm 16.4 - - - - SW 44 57 24 31 - - -
25/10:00pm 16.4 - - - - SW 37 52 20 28 - - -
25/09:30pm 16.4 - - - - SW 37 46 20 25 - - -
25/09:00pm 16.4 - - - - SSW 43 57 23 31 - - -
25/08:30pm 16.8 - - - - SSW 41 54 22 29 - - -
25/08:00pm 16.3 - - - - SSW 39 52 21 28 - - -
25/07:30pm 16.4 - - - - SSW 39 57 21 31 - - -
25/07:25pm 16.2 - - - - SSW 39 57 21 31 - - -
25/07:00pm 16.2 - - - - SSW 35 48 19 26 - - -
25/06:30pm 16.1 - - - - SW 41 59 22 32 - - -
25/06:00pm 16.1 - - - - SSW 44 56 24 30 - - -
25/05:30pm 16.0 - - - - SW 48 61 26 33 - - -
25/05:03pm 15.9 - - - - SW 50 69 27 37 - - -
25/05:00pm 16.0 - - - - SW 50 61 27 33 - - -
25/04:30pm 16.1 - - - - SW 54 67 29 36 - - -
25/04:22pm 16.3 - - - - SSW 48 67 26 36 - - -
25/04:00pm 16.3 - - - - SW 52 65 28 35 - - -
25/03:30pm 16.9 - - - - SW 48 61 26 33 - - -
25/03:05pm 17.0 - - - - SSW 50 70 27 38 - - -
25/03:00pm 16.9 - - - - SW 52 67 28 36 - - -
25/02:40pm 17.3 - - - - SSW 52 70 28 38 - - -
25/02:30pm 17.0 - - - - SSW 54 69 29 37 - - -
25/02:00pm 17.0 - - - - SSW 50 69 27 37 - - -
25/01:45pm 16.7 - - - - SW 50 69 27 37 - - -
25/01:30pm 16.3 - - - - SSW 52 65 28 35 - - -
25/01:02pm 15.8 - - - - SW 50 69 27 37 - - -
25/01:00pm 15.9 - - - - SW 48 63 26 34 - - -
25/12:30pm 15.5 - - - - SW 48 57 26 31 - - -
25/12:06pm 15.5 - - - - SW 46 67 25 36 - - -
25/12:00pm 15.7 - - - - SW 46 59 25 32 - - -
25/11:30am 15.9 - - - - SW 50 65 27 35 - - -
25/11:00am 15.9 - - - - SW 46 59 25 32 - - -
25/10:48am 15.7 - - - - SW 44 65 24 35 - - -
25/10:30am 15.8 - - - - SW 44 57 24 31 - - -
25/10:00am 15.6 - - - - SW 44 57 24 31 - - -
25/09:30am 15.3 - - - - SW 44 56 24 30 - - -
25/09:00am 15.3 - - - - SW 46 59 25 32 - - -
25/08:30am 15.0 - - - - SW 46 59 25 32 - - -
25/08:27am 15.2 - - - - SW 48 67 26 36 - - -
25/08:00am 15.4 - - - - SW 43 57 23 31 - - -
25/07:46am 15.2 - - - - SW 44 67 24 36 - - -
25/07:30am 15.4 - - - - SW 43 52 23 28 - - -
25/07:02am 15.4 - - - - SW 43 61 23 33 - - -
25/07:00am 14.9 - - - - SW 44 61 24 33 - - -
25/06:30am 14.9 - - - - SW 35 57 19 31 - - -
25/06:00am 15.3 - - - - SW 43 54 23 29 - - -
25/05:30am 15.1 - - - - SW 37 48 20 26 - - -
25/05:00am 15.3 - - - - SW 37 56 20 30 - - -
25/04:30am 15.2 - - - - SW 39 63 21 34 - - -
25/04:02am 15.2 - - - - SW 41 59 22 32 - - -
25/04:00am 15.4 - - - - SW 39 54 21 29 - - -
25/03:30am 15.1 - - - - SW 39 54 21 29 - - -
25/03:00am 15.3 - - - - SW 41 56 22 30 - - -
25/02:30am 15.3 - - - - SW 46 57 25 31 - - -
25/02:00am 15.0 - - - - SW 41 54 22 29 - - -
25/01:30am 14.9 - - - - SW 44 61 24 33 - - -
25/01:00am 15.2 - - - - SW 44 57 24 31 - - -
25/12:30am 15.4 - - - - SW 39 50 21 27 - - -
25/12:05am 15.3 - - - - SW 44 63 24 34 - - -
25/12:00am 15.4 - - - - SW 46 63 25 34 - - -
 
Date/Time
EST
Temp
°C
App
Temp
°C
Dew
Point
°C
Rel
Hum
%
Delta-T
°C
Wind Press
QNH
hPa
Press
MSL
hPa
Rain since
9am
mm
Dir  Spd
km/h
Gust
km/h
Spd
kts
Gust
kts
24/11:55pm 15.4 - - - - SW 41 63 22 34 - - -
24/11:30pm 15.4 - - - - SW 39 48 21 26 - - -
24/11:00pm 15.4 - - - - SW 39 52 21 28 - - -
24/10:30pm 15.4 - - - - SW 43 54 23 29 - - -
24/10:00pm 15.3 - - - - SW 46 59 25 32 - - -
24/09:30pm 15.5 - - - - SSW 50 69 27 37 - - -
24/09:12pm 16.0 - - - - SW 41 61 22 33 - - -
24/09:00pm 15.8 - - - - SW 32 43 17 23 - - -
24/08:30pm 16.1 - - - - SW 37 50 20 27 - - -
24/08:00pm 16.2 - - - - SW 39 46 21 25 - - -
24/07:30pm 16.6 - - - - SW 39 50 21 27 - - -
24/07:00pm 16.8 - - - - SW 44 56 24 30 - - -
24/06:30pm 16.5 - - - - SW 44 61 24 33 - - -
24/06:04pm 16.8 - - - - SW 44 63 24 34 - - -
24/06:00pm 16.7 - - - - SW 48 63 26 34 - - -
24/05:30pm 16.9 - - - - SSW 50 61 27 33 - - -
24/05:00pm 17.1 - - - - SSW 57 80 31 43 - - -
24/04:30pm 17.2 - - - - SSW 57 80 31 43 - - -
24/04:00pm 17.0 - - - - SSW 56 78 30 42 - - -
24/03:30pm 17.3 - - - - SSW 52 70 28 38 - - -
24/03:00pm 17.4 - - - - SSW 57 80 31 43 - - -
24/02:30pm 16.4 - - - - SSW 57 76 31 41 - - -
24/02:03pm 16.9 - - - - SSW 48 70 26 38 - - -
24/02:00pm 17.2 - - - - SSW 50 65 27 35 - - -
24/01:48pm 17.0 - - - - SSW 54 72 29 39 - - -
24/01:30pm 17.3 - - - - SSW 57 72 31 39 - - -
24/01:03pm 17.3 - - - - SSW 54 72 29 39 - - -
24/01:00pm 17.4 - - - - SSW 54 69 29 37 - - -
24/12:30pm 17.2 - - - - SSW 57 76 31 41 - - -
24/12:00pm 17.3 - - - - SSW 50 69 27 37 - - -
24/11:30am 17.4 - - - - SSW 54 76 29 41 - - -
24/11:00am 17.0 - - - - SW 52 74 28 40 - - -
24/10:46am 17.1 - - - - SSW 54 72 29 39 - - -
24/10:30am 17.1 - - - - SSW 57 74 31 40 - - -
24/10:00am 17.2 - - - - SSW 50 70 27 38 - - -
24/09:52am 17.1 - - - - SSW 48 70 26 38 - - -
24/09:30am 16.9 - - - - SSW 56 67 30 36 - - -
24/09:00am 17.0 - - - - SW 46 59 25 32 - - -
24/08:33am 16.6 - - - - SW 46 72 25 39 - - -
24/08:30am 16.7 - - - - SW 44 56 24 30 - - -
24/08:17am 16.7 - - - - SW 44 63 24 34 - - -
24/08:00am 16.6 - - - - SW 43 57 23 31 - - -
24/07:30am 16.7 - - - - SSW 44 65 24 35 - - -
24/07:24am 16.6 - - - - SW 44 65 24 35 - - -
24/07:00am 16.7 - - - - SW 48 63 26 34 - - -
24/06:49am 16.6 - - - - SW 44 63 24 34 - - -
24/06:30am 16.7 - - - - SW 43 57 23 31 - - -
24/06:03am 16.7 - - - - SW 43 63 23 34 - - -
24/06:00am 16.7 - - - - SW 41 54 22 29 - - -
24/05:36am 16.7 - - - - SW 46 67 25 36 - - -
24/05:30am 16.6 - - - - SW 43 57 23 31 - - -
24/05:00am 16.3 - - - - SW 35 61 19 33 - - -
24/04:59am 16.2 - - - - SW 35 61 19 33 - - -
24/04:30am 15.7 - - - - SW 32 44 17 24 - - -
24/04:00am 15.0 - - - - WSW 28 37 15 20 - - -
24/03:30am 14.9 - - - - WSW 28 43 15 23 - - -
24/03:00am 15.1 - - - - WSW 32 43 17 23 - - -
24/02:30am 15.1 - - - - WSW 28 35 15 19 - - -
24/02:00am 15.1 - - - - WSW 30 39 16 21 - - -
24/01:30am 15.2 - - - - WSW 30 37 16 20 - - -
24/01:00am 15.1 - - - - WSW 30 43 16 23 - - -
24/12:30am 15.2 - - - - WSW 30 46 16 25 - - -
24/12:28am 15.3 - - - - WSW 28 46 15 25 - - -
24/12:00am 15.2 - - - - WSW 30 39 16 21 - - -
 
Date/Time
EST
Temp
°C
App
Temp
°C
Dew
Point
°C
Rel
Hum
%
Delta-T
°C
Wind Press
QNH
hPa
Press
MSL
hPa
Rain since
9am
mm
Dir  Spd
km/h
Gust
km/h
Spd
kts
Gust
kts
23/11:30pm 15.3 - - - - WSW 30 43 16 23 - - -
23/11:00pm 15.5 - - - - WSW 28 39 15 21 - - -
23/10:30pm 15.6 - - - - WSW 28 43 15 23 - - -
23/10:00pm 15.7 - - - - WSW 30 41 16 22 - - -
23/09:30pm 15.9 - - - - WSW 30 43 16 23 - - -
23/09:00pm 16.1 - - - - WSW 26 39 14 21 - - -
23/08:30pm 15.7 - - - - WSW 22 35 12 19 - - -
23/08:00pm 15.8 - - - - WSW 22 28 12 15 - - -
23/07:30pm 15.7 - - - - WSW 24 32 13 17 - - -
23/07:00pm 15.6 - - - - WSW 24 30 13 16 - - -
23/06:30pm 15.6 - - - - WSW 24 33 13 18 - - -
23/06:00pm 15.4 - - - - W 26 35 14 19 - - -
23/05:30pm 15.6 - - - - W 30 41 16 22 - - -

Latest Capital City Observations: Canberra | Sydney | Melbourne | Brisbane | Adelaide | Perth | Hobart | Darwin

Other formats

Comma delimited format used in spreadsheet applications
http://www.bom.gov.au/fwo/IDN60901/IDN60901.95766.axf

JavaScript Object Notation format (JSON) in row-major order
http://www.bom.gov.au/fwo/IDN60901/IDN60901.95766.json

Data quality

Most of these data are generated automatically and are frequently updated. Quality checks on data are not normally performed. It is possible for incorrect values to appear. Refer to information at About Latest Weather Observations and please check the disclaimer before using these data.